sensor_id;sensor_type;location;lat;lon;timestamp;P1;durP1;ratioP1;P2;durP2;ratioP2
68806;SDS011;55800;54.272;18.558;2024-03-08T00:00:48;61.92;;;29.42;;
68806;SDS011;55800;54.272;18.558;2024-03-08T00:03:38;61.75;;;29.58;;
68806;SDS011;55800;54.272;18.558;2024-03-08T00:06:07;59.08;;;29.92;;
68806;SDS011;55800;54.272;18.558;2024-03-08T00:08:37;61.97;;;31.08;;
68806;SDS011;55800;54.272;18.558;2024-03-08T00:11:06;53.65;;;30.83;;
68806;SDS011;55800;54.272;18.558;2024-03-08T00:13:36;54.53;;;29.40;;
68806;SDS011;55800;54.272;18.558;2024-03-08T00:16:06;64.50;;;29.88;;
68806;SDS011;55800;54.272;18.558;2024-03-08T00:18:36;47.28;;;28.80;;
68806;SDS011;55800;54.272;18.558;2024-03-08T00:21:05;57.95;;;28.83;;
68806;SDS011;55800;54.272;18.558;2024-03-08T00:23:36;60.53;;;29.77;;
68806;SDS011;55800;54.272;18.558;2024-03-08T00:28:35;54.17;;;26.90;;
68806;SDS011;55800;54.272;18.558;2024-03-08T00:31:04;55.75;;;27.73;;
68806;SDS011;55800;54.272;18.558;2024-03-08T00:33:35;49.30;;;28.43;;
68806;SDS011;55800;54.272;18.558;2024-03-08T00:36:06;55.97;;;27.37;;
68806;SDS011;55800;54.272;18.558;2024-03-08T00:38:36;55.38;;;24.83;;
68806;SDS011;55800;54.272;18.558;2024-03-08T00:41:05;52.73;;;25.87;;
68806;SDS011;55800;54.272;18.558;2024-03-08T00:43:34;50.83;;;26.50;;
68806;SDS011;55800;54.272;18.558;2024-03-08T00:46:03;55.07;;;28.33;;
68806;SDS011;55800;54.272;18.558;2024-03-08T00:48:34;59.83;;;30.13;;
68806;SDS011;55800;54.272;18.558;2024-03-08T00:51:04;56.97;;;26.25;;
68806;SDS011;55800;54.272;18.558;2024-03-08T00:53:34;56.97;;;29.35;;
68806;SDS011;55800;54.272;18.558;2024-03-08T00:56:03;64.45;;;29.20;;
68806;SDS011;55800;54.272;18.558;2024-03-08T00:58:33;48.50;;;25.90;;
68806;SDS011;55800;54.272;18.558;2024-03-08T01:01:02;48.17;;;27.00;;
68806;SDS011;55800;54.272;18.558;2024-03-08T01:03:32;51.45;;;25.35;;
68806;SDS011;55800;54.272;18.558;2024-03-08T01:06:02;54.45;;;26.95;;
68806;SDS011;55800;54.272;18.558;2024-03-08T01:08:32;52.23;;;26.70;;
68806;SDS011;55800;54.272;18.558;2024-03-08T01:11:01;51.07;;;26.57;;
68806;SDS011;55800;54.272;18.558;2024-03-08T01:13:31;52.33;;;26.17;;
68806;SDS011;55800;54.272;18.558;2024-03-08T01:16:01;52.80;;;27.23;;
68806;SDS011;55800;54.272;18.558;2024-03-08T01:18:31;52.60;;;25.90;;
68806;SDS011;55800;54.272;18.558;2024-03-08T01:21:00;46.60;;;22.52;;
68806;SDS011;55800;54.272;18.558;2024-03-08T01:23:31;51.80;;;27.07;;
68806;SDS011;55800;54.272;18.558;2024-03-08T01:26:01;48.27;;;24.30;;
68806;SDS011;55800;54.272;18.558;2024-03-08T01:28:31;59.65;;;26.55;;
68806;SDS011;55800;54.272;18.558;2024-03-08T01:31:01;59.33;;;26.90;;
68806;SDS011;55800;54.272;18.558;2024-03-08T01:33:31;48.23;;;29.37;;
68806;SDS011;55800;54.272;18.558;2024-03-08T01:36:01;47.75;;;25.65;;
68806;SDS011;55800;54.272;18.558;2024-03-08T01:38:32;53.33;;;24.87;;
68806;SDS011;55800;54.272;18.558;2024-03-08T01:41:03;44.57;;;23.33;;
68806;SDS011;55800;54.272;18.558;2024-03-08T01:43:32;49.50;;;24.85;;
68806;SDS011;55800;54.272;18.558;2024-03-08T01:46:01;49.65;;;25.10;;
68806;SDS011;55800;54.272;18.558;2024-03-08T01:48:31;55.45;;;28.83;;
68806;SDS011;55800;54.272;18.558;2024-03-08T01:51:03;55.70;;;28.27;;
68806;SDS011;55800;54.272;18.558;2024-03-08T01:53:33;56.37;;;26.73;;
68806;SDS011;55800;54.272;18.558;2024-03-08T01:56:04;55.33;;;26.30;;
68806;SDS011;55800;54.272;18.558;2024-03-08T01:58:36;55.00;;;26.87;;
68806;SDS011;55800;54.272;18.558;2024-03-08T02:01:05;50.78;;;28.65;;
68806;SDS011;55800;54.272;18.558;2024-03-08T02:03:36;60.17;;;27.37;;
68806;SDS011;55800;54.272;18.558;2024-03-08T02:06:06;57.10;;;28.60;;
68806;SDS011;55800;54.272;18.558;2024-03-08T02:08:37;63.40;;;30.37;;
68806;SDS011;55800;54.272;18.558;2024-03-08T02:11:06;52.17;;;25.67;;
68806;SDS011;55800;54.272;18.558;2024-03-08T02:13:36;60.72;;;30.73;;
68806;SDS011;55800;54.272;18.558;2024-03-08T02:16:05;52.47;;;28.03;;
68806;SDS011;55800;54.272;18.558;2024-03-08T02:18:36;64.77;;;30.40;;
68806;SDS011;55800;54.272;18.558;2024-03-08T02:21:08;57.30;;;28.00;;
68806;SDS011;55800;54.272;18.558;2024-03-08T02:23:37;52.00;;;27.67;;
68806;SDS011;55800;54.272;18.558;2024-03-08T02:28:36;43.30;;;22.93;;
68806;SDS011;55800;54.272;18.558;2024-03-08T02:31:06;44.45;;;21.15;;
68806;SDS011;55800;54.272;18.558;2024-03-08T02:33:36;40.00;;;19.65;;
68806;SDS011;55800;54.272;18.558;2024-03-08T02:36:06;40.15;;;21.40;;
68806;SDS011;55800;54.272;18.558;2024-03-08T02:38:37;44.60;;;22.00;;
68806;SDS011;55800;54.272;18.558;2024-03-08T02:41:07;37.50;;;22.27;;
68806;SDS011;55800;54.272;18.558;2024-03-08T02:43:37;45.03;;;22.10;;
68806;SDS011;55800;54.272;18.558;2024-03-08T02:46:06;47.63;;;23.03;;
68806;SDS011;55800;54.272;18.558;2024-03-08T02:48:35;46.35;;;25.60;;
68806;SDS011;55800;54.272;18.558;2024-03-08T02:51:06;39.78;;;22.75;;
68806;SDS011;55800;54.272;18.558;2024-03-08T02:53:38;38.67;;;23.20;;
68806;SDS011;55800;54.272;18.558;2024-03-08T02:56:07;40.60;;;24.27;;
68806;SDS011;55800;54.272;18.558;2024-03-08T02:58:40;39.37;;;22.67;;
68806;SDS011;55800;54.272;18.558;2024-03-08T03:01:09;45.67;;;24.25;;
68806;SDS011;55800;54.272;18.558;2024-03-08T03:03:39;44.15;;;25.00;;
68806;SDS011;55800;54.272;18.558;2024-03-08T03:06:10;43.85;;;22.10;;
68806;SDS011;55800;54.272;18.558;2024-03-08T03:08:39;45.77;;;23.63;;
68806;SDS011;55800;54.272;18.558;2024-03-08T03:11:09;47.50;;;25.27;;
68806;SDS011;55800;54.272;18.558;2024-03-08T03:13:40;43.40;;;23.40;;
68806;SDS011;55800;54.272;18.558;2024-03-08T03:16:16;43.87;;;22.07;;
68806;SDS011;55800;54.272;18.558;2024-03-08T03:18:47;49.60;;;26.93;;
68806;SDS011;55800;54.272;18.558;2024-03-08T03:21:18;52.95;;;27.42;;
68806;SDS011;55800;54.272;18.558;2024-03-08T03:23:47;41.10;;;24.13;;
68806;SDS011;55800;54.272;18.558;2024-03-08T03:26:16;48.50;;;24.93;;
68806;SDS011;55800;54.272;18.558;2024-03-08T03:28:46;45.55;;;24.70;;
68806;SDS011;55800;54.272;18.558;2024-03-08T03:31:15;55.00;;;28.40;;
68806;SDS011;55800;54.272;18.558;2024-03-08T03:33:45;60.87;;;32.57;;
68806;SDS011;55800;54.272;18.558;2024-03-08T03:36:15;51.72;;;27.65;;
68806;SDS011;55800;54.272;18.558;2024-03-08T03:38:46;54.67;;;29.23;;
68806;SDS011;55800;54.272;18.558;2024-03-08T03:41:15;50.72;;;24.80;;
68806;SDS011;55800;54.272;18.558;2024-03-08T03:43:44;48.10;;;27.17;;
68806;SDS011;55800;54.272;18.558;2024-03-08T03:46:16;48.10;;;23.37;;
68806;SDS011;55800;54.272;18.558;2024-03-08T03:48:45;40.53;;;25.27;;
68806;SDS011;55800;54.272;18.558;2024-03-08T03:51:14;47.80;;;26.15;;
68806;SDS011;55800;54.272;18.558;2024-03-08T03:53:45;43.28;;;23.80;;
68806;SDS011;55800;54.272;18.558;2024-03-08T03:56:14;55.37;;;26.43;;
68806;SDS011;55800;54.272;18.558;2024-03-08T03:58:44;61.75;;;27.67;;
68806;SDS011;55800;54.272;18.558;2024-03-08T04:01:13;49.67;;;27.63;;
68806;SDS011;55800;54.272;18.558;2024-03-08T04:03:43;52.87;;;27.27;;
68806;SDS011;55800;54.272;18.558;2024-03-08T04:06:12;41.03;;;24.63;;
68806;SDS011;55800;54.272;18.558;2024-03-08T04:08:42;41.30;;;21.65;;
68806;SDS011;55800;54.272;18.558;2024-03-08T04:11:13;43.17;;;23.10;;
68806;SDS011;55800;54.272;18.558;2024-03-08T04:13:44;39.10;;;20.77;;
68806;SDS011;55800;54.272;18.558;2024-03-08T04:16:13;28.67;;;16.83;;
68806;SDS011;55800;54.272;18.558;2024-03-08T04:18:42;38.22;;;19.95;;
68806;SDS011;55800;54.272;18.558;2024-03-08T04:21:12;35.50;;;19.42;;
68806;SDS011;55800;54.272;18.558;2024-03-08T04:23:41;40.50;;;19.70;;
68806;SDS011;55800;54.272;18.558;2024-03-08T04:26:12;47.63;;;20.93;;
68806;SDS011;55800;54.272;18.558;2024-03-08T04:28:45;35.27;;;15.67;;
68806;SDS011;55800;54.272;18.558;2024-03-08T04:31:14;37.22;;;18.48;;
68806;SDS011;55800;54.272;18.558;2024-03-08T04:33:44;36.72;;;16.88;;
68806;SDS011;55800;54.272;18.558;2024-03-08T04:36:13;32.15;;;18.13;;
68806;SDS011;55800;54.272;18.558;2024-03-08T04:38:42;33.50;;;15.55;;
68806;SDS011;55800;54.272;18.558;2024-03-08T04:41:12;40.53;;;19.33;;
68806;SDS011;55800;54.272;18.558;2024-03-08T04:43:43;38.03;;;19.93;;
68806;SDS011;55800;54.272;18.558;2024-03-08T04:46:12;33.10;;;18.07;;
68806;SDS011;55800;54.272;18.558;2024-03-08T04:48:42;31.83;;;17.83;;
68806;SDS011;55800;54.272;18.558;2024-03-08T04:51:11;33.25;;;19.60;;
68806;SDS011;55800;54.272;18.558;2024-03-08T04:53:41;34.83;;;17.75;;
68806;SDS011;55800;54.272;18.558;2024-03-08T04:56:10;33.30;;;17.00;;
68806;SDS011;55800;54.272;18.558;2024-03-08T04:58:41;35.53;;;18.20;;
68806;SDS011;55800;54.272;18.558;2024-03-08T05:01:10;33.33;;;19.10;;
68806;SDS011;55800;54.272;18.558;2024-03-08T05:03:40;35.28;;;17.15;;
68806;SDS011;55800;54.272;18.558;2024-03-08T05:06:09;35.53;;;19.30;;
68806;SDS011;55800;54.272;18.558;2024-03-08T05:08:38;36.15;;;16.65;;
68806;SDS011;55800;54.272;18.558;2024-03-08T05:11:07;35.83;;;17.70;;
68806;SDS011;55800;54.272;18.558;2024-03-08T05:13:37;42.58;;;16.95;;
68806;SDS011;55800;54.272;18.558;2024-03-08T05:16:08;36.55;;;19.65;;
68806;SDS011;55800;54.272;18.558;2024-03-08T05:18:37;34.42;;;19.10;;
68806;SDS011;55800;54.272;18.558;2024-03-08T05:21:09;38.73;;;19.43;;
68806;SDS011;55800;54.272;18.558;2024-03-08T05:23:38;45.35;;;19.98;;
68806;SDS011;55800;54.272;18.558;2024-03-08T05:26:07;42.93;;;21.17;;
68806;SDS011;55800;54.272;18.558;2024-03-08T05:28:36;57.38;;;22.45;;
68806;SDS011;55800;54.272;18.558;2024-03-08T05:31:05;37.90;;;21.83;;
68806;SDS011;55800;54.272;18.558;2024-03-08T05:33:36;52.60;;;24.25;;
68806;SDS011;55800;54.272;18.558;2024-03-08T05:36:06;46.97;;;23.30;;
68806;SDS011;55800;54.272;18.558;2024-03-08T05:38:36;53.10;;;23.30;;
68806;SDS011;55800;54.272;18.558;2024-03-08T05:41:05;45.73;;;21.23;;
68806;SDS011;55800;54.272;18.558;2024-03-08T05:43:35;32.58;;;16.83;;
68806;SDS011;55800;54.272;18.558;2024-03-08T05:46:04;31.75;;;14.20;;
68806;SDS011;55800;54.272;18.558;2024-03-08T05:48:34;34.40;;;17.77;;
68806;SDS011;55800;54.272;18.558;2024-03-08T05:51:04;37.25;;;17.63;;
68806;SDS011;55800;54.272;18.558;2024-03-08T05:53:34;36.33;;;19.23;;
68806;SDS011;55800;54.272;18.558;2024-03-08T05:56:03;39.23;;;20.77;;
68806;SDS011;55800;54.272;18.558;2024-03-08T05:58:34;42.40;;;21.33;;
68806;SDS011;55800;54.272;18.558;2024-03-08T06:01:03;46.47;;;18.47;;
68806;SDS011;55800;54.272;18.558;2024-03-08T06:03:36;39.45;;;21.48;;
68806;SDS011;55800;54.272;18.558;2024-03-08T06:06:11;44.05;;;18.52;;
68806;SDS011;55800;54.272;18.558;2024-03-08T06:08:41;39.47;;;17.60;;
68806;SDS011;55800;54.272;18.558;2024-03-08T06:11:11;30.95;;;17.48;;
68806;SDS011;55800;54.272;18.558;2024-03-08T06:13:41;33.72;;;16.95;;
68806;SDS011;55800;54.272;18.558;2024-03-08T06:16:11;28.98;;;14.63;;
68806;SDS011;55800;54.272;18.558;2024-03-08T06:18:42;31.70;;;14.18;;
68806;SDS011;55800;54.272;18.558;2024-03-08T06:21:11;31.13;;;15.32;;
68806;SDS011;55800;54.272;18.558;2024-03-08T06:23:41;27.55;;;13.68;;
68806;SDS011;55800;54.272;18.558;2024-03-08T06:26:10;24.98;;;14.48;;
68806;SDS011;55800;54.272;18.558;2024-03-08T06:28:39;20.88;;;11.73;;
68806;SDS011;55800;54.272;18.558;2024-03-08T06:31:09;34.55;;;14.77;;
68806;SDS011;55800;54.272;18.558;2024-03-08T06:36:09;33.40;;;13.48;;
68806;SDS011;55800;54.272;18.558;2024-03-08T06:38:40;26.70;;;10.98;;
68806;SDS011;55800;54.272;18.558;2024-03-08T06:41:13;30.58;;;13.82;;
68806;SDS011;55800;54.272;18.558;2024-03-08T06:43:43;37.97;;;14.77;;
68806;SDS011;55800;54.272;18.558;2024-03-08T06:46:14;34.50;;;14.95;;
68806;SDS011;55800;54.272;18.558;2024-03-08T06:48:44;25.92;;;12.13;;
68806;SDS011;55800;54.272;18.558;2024-03-08T06:53:45;22.27;;;12.68;;
68806;SDS011;55800;54.272;18.558;2024-03-08T06:56:16;20.65;;;14.23;;
68806;SDS011;55800;54.272;18.558;2024-03-08T06:58:46;26.02;;;14.05;;
68806;SDS011;55800;54.272;18.558;2024-03-08T07:01:16;24.25;;;15.02;;
68806;SDS011;55800;54.272;18.558;2024-03-08T07:03:45;27.15;;;14.10;;
68806;SDS011;55800;54.272;18.558;2024-03-08T07:06:14;25.42;;;10.70;;
68806;SDS011;55800;54.272;18.558;2024-03-08T07:08:46;23.77;;;12.48;;
68806;SDS011;55800;54.272;18.558;2024-03-08T07:11:15;25.85;;;14.13;;
68806;SDS011;55800;54.272;18.558;2024-03-08T07:13:46;31.88;;;14.80;;
68806;SDS011;55800;54.272;18.558;2024-03-08T07:16:15;26.53;;;13.80;;
68806;SDS011;55800;54.272;18.558;2024-03-08T07:18:45;26.08;;;14.85;;
68806;SDS011;55800;54.272;18.558;2024-03-08T07:21:14;27.77;;;14.88;;
68806;SDS011;55800;54.272;18.558;2024-03-08T07:23:46;22.95;;;13.02;;
68806;SDS011;55800;54.272;18.558;2024-03-08T07:26:30;27.23;;;13.88;;
68806;SDS011;55800;54.272;18.558;2024-03-08T07:28:59;12.65;;;7.25;;
68806;SDS011;55800;54.272;18.558;2024-03-08T07:31:28;19.30;;;12.48;;
68806;SDS011;55800;54.272;18.558;2024-03-08T07:34:11;24.00;;;12.50;;
68806;SDS011;55800;54.272;18.558;2024-03-08T07:36:42;18.93;;;11.10;;
68806;SDS011;55800;54.272;18.558;2024-03-08T07:39:11;23.45;;;14.43;;
68806;SDS011;55800;54.272;18.558;2024-03-08T07:41:41;27.38;;;14.88;;
68806;SDS011;55800;54.272;18.558;2024-03-08T07:44:11;28.55;;;11.63;;
68806;SDS011;55800;54.272;18.558;2024-03-08T07:46:41;26.42;;;12.80;;
68806;SDS011;55800;54.272;18.558;2024-03-08T07:49:10;19.50;;;10.43;;
68806;SDS011;55800;54.272;18.558;2024-03-08T07:51:42;21.27;;;13.23;;
68806;SDS011;55800;54.272;18.558;2024-03-08T07:54:11;32.15;;;17.05;;
68806;SDS011;55800;54.272;18.558;2024-03-08T07:56:41;28.35;;;14.23;;
68806;SDS011;55800;54.272;18.558;2024-03-08T07:59:10;29.65;;;15.23;;
68806;SDS011;55800;54.272;18.558;2024-03-08T08:01:39;28.20;;;15.80;;
68806;SDS011;55800;54.272;18.558;2024-03-08T08:04:09;33.97;;;16.15;;
68806;SDS011;55800;54.272;18.558;2024-03-08T08:09:10;25.63;;;13.85;;
68806;SDS011;55800;54.272;18.558;2024-03-08T08:11:41;27.50;;;14.35;;
68806;SDS011;55800;54.272;18.558;2024-03-08T08:14:11;31.10;;;15.80;;
68806;SDS011;55800;54.272;18.558;2024-03-08T08:16:40;30.13;;;14.85;;
68806;SDS011;55800;54.272;18.558;2024-03-08T08:19:12;33.42;;;17.00;;
68806;SDS011;55800;54.272;18.558;2024-03-08T08:21:43;22.38;;;14.15;;
68806;SDS011;55800;54.272;18.558;2024-03-08T08:24:13;35.28;;;16.05;;
68806;SDS011;55800;54.272;18.558;2024-03-08T08:26:42;30.15;;;15.60;;
68806;SDS011;55800;54.272;18.558;2024-03-08T08:29:12;26.85;;;15.05;;
68806;SDS011;55800;54.272;18.558;2024-03-08T08:31:42;22.40;;;12.77;;
68806;SDS011;55800;54.272;18.558;2024-03-08T08:34:11;28.13;;;13.57;;
68806;SDS011;55800;54.272;18.558;2024-03-08T08:36:41;31.38;;;17.13;;
68806;SDS011;55800;54.272;18.558;2024-03-08T08:39:11;23.65;;;12.95;;
68806;SDS011;55800;54.272;18.558;2024-03-08T08:41:41;27.58;;;13.88;;
68806;SDS011;55800;54.272;18.558;2024-03-08T08:44:10;23.65;;;14.50;;
68806;SDS011;55800;54.272;18.558;2024-03-08T08:46:42;26.58;;;12.05;;
68806;SDS011;55800;54.272;18.558;2024-03-08T08:49:11;24.13;;;12.68;;
68806;SDS011;55800;54.272;18.558;2024-03-08T08:51:48;21.00;;;9.88;;
68806;SDS011;55800;54.272;18.558;2024-03-08T08:54:21;24.10;;;12.48;;
68806;SDS011;55800;54.272;18.558;2024-03-08T08:56:52;28.77;;;12.88;;
68806;SDS011;55800;54.272;18.558;2024-03-08T08:59:21;28.13;;;12.20;;
68806;SDS011;55800;54.272;18.558;2024-03-08T09:01:52;22.45;;;11.35;;
68806;SDS011;55800;54.272;18.558;2024-03-08T09:06:51;13.45;;;8.20;;
68806;SDS011;55800;54.272;18.558;2024-03-08T09:09:22;19.30;;;12.32;;
68806;SDS011;55800;54.272;18.558;2024-03-08T09:11:52;22.92;;;9.40;;
68806;SDS011;55800;54.272;18.558;2024-03-08T09:14:22;27.10;;;13.32;;
68806;SDS011;55800;54.272;18.558;2024-03-08T09:16:52;23.40;;;12.82;;
68806;SDS011;55800;54.272;18.558;2024-03-08T09:19:22;22.27;;;12.63;;
68806;SDS011;55800;54.272;18.558;2024-03-08T09:21:52;21.15;;;12.85;;
68806;SDS011;55800;54.272;18.558;2024-03-08T09:24:23;20.35;;;10.23;;
68806;SDS011;55800;54.272;18.558;2024-03-08T09:26:52;20.23;;;11.00;;
68806;SDS011;55800;54.272;18.558;2024-03-08T09:29:22;20.88;;;13.20;;
68806;SDS011;55800;54.272;18.558;2024-03-08T09:31:51;19.33;;;12.43;;
68806;SDS011;55800;54.272;18.558;2024-03-08T09:34:20;23.20;;;13.45;;
68806;SDS011;55800;54.272;18.558;2024-03-08T09:37:01;22.67;;;12.73;;
68806;SDS011;55800;54.272;18.558;2024-03-08T09:39:33;29.48;;;13.65;;
68806;SDS011;55800;54.272;18.558;2024-03-08T09:42:03;25.17;;;14.45;;
68806;SDS011;55800;54.272;18.558;2024-03-08T09:44:33;23.88;;;13.23;;
68806;SDS011;55800;54.272;18.558;2024-03-08T09:47:04;19.83;;;10.77;;
68806;SDS011;55800;54.272;18.558;2024-03-08T09:49:34;22.02;;;14.70;;
68806;SDS011;55800;54.272;18.558;2024-03-08T09:52:05;24.40;;;14.32;;
68806;SDS011;55800;54.272;18.558;2024-03-08T09:57:05;22.45;;;12.82;;
68806;SDS011;55800;54.272;18.558;2024-03-08T09:59:36;18.85;;;11.30;;
68806;SDS011;55800;54.272;18.558;2024-03-08T10:02:15;19.20;;;10.18;;
68806;SDS011;55800;54.272;18.558;2024-03-08T10:04:46;21.42;;;11.10;;
68806;SDS011;55800;54.272;18.558;2024-03-08T10:07:15;19.00;;;10.13;;
68806;SDS011;55800;54.272;18.558;2024-03-08T10:09:46;16.33;;;11.10;;
68806;SDS011;55800;54.272;18.558;2024-03-08T10:12:17;22.48;;;12.13;;
68806;SDS011;55800;54.272;18.558;2024-03-08T10:14:47;24.17;;;13.48;;
68806;SDS011;55800;54.272;18.558;2024-03-08T10:17:16;19.95;;;11.77;;
68806;SDS011;55800;54.272;18.558;2024-03-08T10:19:51;24.38;;;11.82;;
68806;SDS011;55800;54.272;18.558;2024-03-08T10:22:20;25.15;;;13.50;;
68806;SDS011;55800;54.272;18.558;2024-03-08T10:24:51;20.70;;;11.95;;
68806;SDS011;55800;54.272;18.558;2024-03-08T10:27:21;17.20;;;11.00;;
68806;SDS011;55800;54.272;18.558;2024-03-08T10:29:50;20.08;;;10.18;;
68806;SDS011;55800;54.272;18.558;2024-03-08T10:32:20;22.17;;;10.65;;
68806;SDS011;55800;54.272;18.558;2024-03-08T10:34:51;24.33;;;11.75;;
68806;SDS011;55800;54.272;18.558;2024-03-08T10:37:21;25.13;;;12.55;;
68806;SDS011;55800;54.272;18.558;2024-03-08T10:39:57;19.73;;;12.52;;
68806;SDS011;55800;54.272;18.558;2024-03-08T10:42:39;20.70;;;11.77;;
68806;SDS011;55800;54.272;18.558;2024-03-08T10:45:31;21.00;;;11.38;;
68806;SDS011;55800;54.272;18.558;2024-03-08T10:48:06;23.48;;;12.32;;
68806;SDS011;55800;54.272;18.558;2024-03-08T10:50:49;20.52;;;12.52;;
68806;SDS011;55800;54.272;18.558;2024-03-08T10:53:20;25.52;;;13.10;;
68806;SDS011;55800;54.272;18.558;2024-03-08T10:55:56;20.85;;;10.30;;
68806;SDS011;55800;54.272;18.558;2024-03-08T10:58:26;22.88;;;9.77;;
68806;SDS011;55800;54.272;18.558;2024-03-08T11:00:57;19.23;;;10.55;;
68806;SDS011;55800;54.272;18.558;2024-03-08T11:03:45;19.23;;;10.45;;
68806;SDS011;55800;54.272;18.558;2024-03-08T11:06:22;18.30;;;9.52;;
68806;SDS011;55800;54.272;18.558;2024-03-08T11:08:58;20.50;;;8.65;;
68806;SDS011;55800;54.272;18.558;2024-03-08T11:11:30;23.55;;;8.82;;
68806;SDS011;55800;54.272;18.558;2024-03-08T11:14:02;24.60;;;9.23;;
68806;SDS011;55800;54.272;18.558;2024-03-08T11:16:37;21.08;;;9.25;;
68806;SDS011;55800;54.272;18.558;2024-03-08T11:19:23;19.60;;;10.10;;
68806;SDS011;55800;54.272;18.558;2024-03-08T11:22:00;16.25;;;9.70;;
68806;SDS011;55800;54.272;18.558;2024-03-08T11:24:40;21.42;;;9.98;;
68806;SDS011;55800;54.272;18.558;2024-03-08T11:27:10;24.35;;;10.68;;
68806;SDS011;55800;54.272;18.558;2024-03-08T11:29:40;20.48;;;10.63;;
68806;SDS011;55800;54.272;18.558;2024-03-08T11:32:11;21.40;;;10.73;;
68806;SDS011;55800;54.272;18.558;2024-03-08T11:34:44;21.10;;;9.93;;
68806;SDS011;55800;54.272;18.558;2024-03-08T11:37:17;18.80;;;10.52;;
68806;SDS011;55800;54.272;18.558;2024-03-08T11:39:48;23.15;;;11.43;;
68806;SDS011;55800;54.272;18.558;2024-03-08T11:42:19;24.20;;;11.38;;
68806;SDS011;55800;54.272;18.558;2024-03-08T11:44:50;19.90;;;9.98;;
68806;SDS011;55800;54.272;18.558;2024-03-08T11:47:20;19.40;;;10.63;;
68806;SDS011;55800;54.272;18.558;2024-03-08T11:49:50;23.60;;;11.23;;
68806;SDS011;55800;54.272;18.558;2024-03-08T11:52:20;19.70;;;9.23;;
68806;SDS011;55800;54.272;18.558;2024-03-08T11:54:52;17.50;;;9.60;;
68806;SDS011;55800;54.272;18.558;2024-03-08T11:57:26;14.93;;;8.98;;
68806;SDS011;55800;54.272;18.558;2024-03-08T11:59:56;25.00;;;9.27;;
68806;SDS011;55800;54.272;18.558;2024-03-08T12:05:07;16.73;;;9.02;;
68806;SDS011;55800;54.272;18.558;2024-03-08T12:07:37;20.05;;;11.57;;
68806;SDS011;55800;54.272;18.558;2024-03-08T12:10:17;18.13;;;9.13;;
68806;SDS011;55800;54.272;18.558;2024-03-08T12:12:51;22.70;;;9.93;;
68806;SDS011;55800;54.272;18.558;2024-03-08T12:15:22;18.67;;;10.68;;
68806;SDS011;55800;54.272;18.558;2024-03-08T12:17:53;20.65;;;11.82;;
68806;SDS011;55800;54.272;18.558;2024-03-08T12:20:24;18.60;;;12.52;;
68806;SDS011;55800;54.272;18.558;2024-03-08T12:22:57;24.13;;;12.30;;
68806;SDS011;55800;54.272;18.558;2024-03-08T12:25:27;20.88;;;12.43;;
68806;SDS011;55800;54.272;18.558;2024-03-08T12:28:08;24.75;;;12.60;;
68806;SDS011;55800;54.272;18.558;2024-03-08T12:30:45;23.48;;;10.75;;
68806;SDS011;55800;54.272;18.558;2024-03-08T12:33:15;18.30;;;11.82;;
68806;SDS011;55800;54.272;18.558;2024-03-08T12:35:50;15.90;;;10.30;;
68806;SDS011;55800;54.272;18.558;2024-03-08T12:38:27;18.83;;;10.65;;
68806;SDS011;55800;54.272;18.558;2024-03-08T12:40:58;21.83;;;11.35;;
68806;SDS011;55800;54.272;18.558;2024-03-08T12:43:30;23.20;;;11.32;;
68806;SDS011;55800;54.272;18.558;2024-03-08T12:46:01;16.33;;;10.15;;
68806;SDS011;55800;54.272;18.558;2024-03-08T12:48:34;25.48;;;11.80;;
68806;SDS011;55800;54.272;18.558;2024-03-08T12:51:07;25.40;;;10.82;;
68806;SDS011;55800;54.272;18.558;2024-03-08T12:53:37;22.70;;;11.35;;
68806;SDS011;55800;54.272;18.558;2024-03-08T12:56:07;20.73;;;9.75;;
68806;SDS011;55800;54.272;18.558;2024-03-08T12:58:39;19.45;;;10.18;;
68806;SDS011;55800;54.272;18.558;2024-03-08T13:01:09;23.52;;;11.82;;
68806;SDS011;55800;54.272;18.558;2024-03-08T13:06:10;22.17;;;11.32;;
68806;SDS011;55800;54.272;18.558;2024-03-08T13:08:40;20.02;;;10.32;;
68806;SDS011;55800;54.272;18.558;2024-03-08T13:11:10;17.48;;;10.07;;
68806;SDS011;55800;54.272;18.558;2024-03-08T13:13:42;23.63;;;11.75;;
68806;SDS011;55800;54.272;18.558;2024-03-08T13:16:12;22.15;;;11.95;;
68806;SDS011;55800;54.272;18.558;2024-03-08T13:18:45;18.63;;;10.15;;
68806;SDS011;55800;54.272;18.558;2024-03-08T13:21:20;20.60;;;11.25;;
68806;SDS011;55800;54.272;18.558;2024-03-08T13:23:51;20.95;;;10.68;;
68806;SDS011;55800;54.272;18.558;2024-03-08T13:26:21;22.52;;;10.40;;
68806;SDS011;55800;54.272;18.558;2024-03-08T13:28:54;20.50;;;10.73;;
68806;SDS011;55800;54.272;18.558;2024-03-08T13:31:23;20.25;;;10.68;;
68806;SDS011;55800;54.272;18.558;2024-03-08T13:33:53;20.50;;;11.55;;
68806;SDS011;55800;54.272;18.558;2024-03-08T13:36:25;20.05;;;11.55;;
68806;SDS011;55800;54.272;18.558;2024-03-08T13:38:58;17.60;;;10.38;;
68806;SDS011;55800;54.272;18.558;2024-03-08T13:41:27;25.17;;;11.10;;
68806;SDS011;55800;54.272;18.558;2024-03-08T13:44:01;21.63;;;12.32;;
68806;SDS011;55800;54.272;18.558;2024-03-08T13:46:31;25.13;;;13.18;;
68806;SDS011;55800;54.272;18.558;2024-03-08T13:49:03;17.60;;;9.60;;
68806;SDS011;55800;54.272;18.558;2024-03-08T13:51:35;18.02;;;9.20;;
68806;SDS011;55800;54.272;18.558;2024-03-08T13:54:04;23.23;;;10.95;;
68806;SDS011;55800;54.272;18.558;2024-03-08T13:56:34;19.88;;;10.90;;
68806;SDS011;55800;54.272;18.558;2024-03-08T13:59:05;24.50;;;11.18;;
68806;SDS011;55800;54.272;18.558;2024-03-08T14:01:36;23.73;;;10.35;;
68806;SDS011;55800;54.272;18.558;2024-03-08T14:04:05;33.53;;;10.95;;
68806;SDS011;55800;54.272;18.558;2024-03-08T14:06:35;30.20;;;12.05;;
68806;SDS011;55800;54.272;18.558;2024-03-08T14:09:04;19.38;;;11.50;;
68806;SDS011;55800;54.272;18.558;2024-03-08T14:11:35;22.02;;;11.10;;
68806;SDS011;55800;54.272;18.558;2024-03-08T14:16:36;24.08;;;13.30;;
68806;SDS011;55800;54.272;18.558;2024-03-08T14:19:06;26.23;;;14.45;;
68806;SDS011;55800;54.272;18.558;2024-03-08T14:21:36;22.05;;;13.25;;
68806;SDS011;55800;54.272;18.558;2024-03-08T14:24:06;26.92;;;13.02;;
68806;SDS011;55800;54.272;18.558;2024-03-08T14:26:35;23.58;;;12.70;;
68806;SDS011;55800;54.272;18.558;2024-03-08T14:29:07;23.98;;;12.73;;
68806;SDS011;55800;54.272;18.558;2024-03-08T14:31:37;23.73;;;11.02;;
68806;SDS011;55800;54.272;18.558;2024-03-08T14:34:08;18.27;;;9.98;;
68806;SDS011;55800;54.272;18.558;2024-03-08T14:36:37;16.98;;;8.93;;
68806;SDS011;55800;54.272;18.558;2024-03-08T14:39:07;27.23;;;12.02;;
68806;SDS011;55800;54.272;18.558;2024-03-08T14:44:07;17.88;;;9.27;;
68806;SDS011;55800;54.272;18.558;2024-03-08T14:46:37;17.88;;;9.82;;
68806;SDS011;55800;54.272;18.558;2024-03-08T14:49:07;17.55;;;8.63;;
68806;SDS011;55800;54.272;18.558;2024-03-08T14:51:36;17.55;;;9.10;;
68806;SDS011;55800;54.272;18.558;2024-03-08T14:56:37;18.58;;;8.77;;
68806;SDS011;55800;54.272;18.558;2024-03-08T14:59:09;17.05;;;9.13;;
68806;SDS011;55800;54.272;18.558;2024-03-08T15:01:39;18.30;;;9.73;;